Appleton, Colorado
Current Conditions -  °F | °C
As of 6:53 PM on Sunday 25 Jan 2015 (Local Time) from KGJT Reporting Station
Clear Clear  
Wind Chill: 30°   Ceiling: Unl
Heat Index: 34°   Visibility: 10mi
Dew Point: 23°   Wind: 5mph
Humidity: 64%   Direction: 50°NE
Pressure: 30.35"   Gusts: NA
Location:  39.1857°N, 108.6°W
Report Text: KGJT 260153Z 05004KT 10SM CLR 01/M05 A3035 RMK AO2 SLP303 T00111050
Loading
Personal Weather Stations






























Interactive Weather Map New forecast layout! Learn more

10-Day Weather Forecast

Advertisements
Track Severe Weather on mobile